createdAt,value
2022-09-28T00:00:59.570Z,4.80
2022-09-28T00:03:25.939Z,4.07
2022-09-28T00:05:52.209Z,5.00
2022-09-28T00:08:18.675Z,4.05
2022-09-28T00:10:46.307Z,4.28
2022-09-28T00:13:12.565Z,4.82
2022-09-28T00:15:38.798Z,5.13
2022-09-28T00:18:05.078Z,3.63
2022-09-28T00:20:31.310Z,5.13
2022-09-28T00:22:57.625Z,4.10
2022-09-28T00:25:24.912Z,4.47
2022-09-28T00:27:51.304Z,4.13
2022-09-28T00:30:17.599Z,3.13
2022-09-28T00:32:43.856Z,3.40
2022-09-28T00:35:10.292Z,4.78
2022-09-28T00:37:36.558Z,3.70
2022-09-28T00:40:02.892Z,4.13
2022-09-28T00:42:29.441Z,3.92
2022-09-28T00:44:56.437Z,3.15
2022-09-28T00:47:34.000Z,3.58
2022-09-28T00:50:03.257Z,2.70
2022-09-28T00:52:49.817Z,3.38
2022-09-28T00:55:17.688Z,2.97
2022-09-28T00:57:45.586Z,2.70
2022-09-28T01:00:12.371Z,4.00
2022-09-28T01:02:38.718Z,3.65
2022-09-28T01:05:06.181Z,3.15
2022-09-28T01:07:33.319Z,3.45
2022-09-28T01:09:59.734Z,3.00
2022-09-28T01:12:25.981Z,4.22
2022-09-28T01:14:52.577Z,3.45
2022-09-28T01:17:25.410Z,3.83
2022-09-28T01:20:07.754Z,3.38
2022-09-28T01:22:33.992Z,4.25
2022-09-28T01:25:00.200Z,4.18
2022-09-28T01:27:34.179Z,3.15
2022-09-28T01:30:03.539Z,3.63
2022-09-28T01:32:48.550Z,3.78
2022-09-28T01:35:31.907Z,3.92
2022-09-28T01:38:17.431Z,4.13
2022-09-28T01:40:44.368Z,3.97
2022-09-28T01:43:13.613Z,4.35
2022-09-28T01:45:43.500Z,3.70
2022-09-28T01:48:11.783Z,4.03
2022-09-28T01:50:40.450Z,4.22
2022-09-28T01:53:19.100Z,4.20
2022-09-28T01:55:47.998Z,3.95
2022-09-28T01:58:16.412Z,4.07
2022-09-28T02:00:45.612Z,4.72
2022-09-28T02:03:14.242Z,4.78
2022-09-28T02:05:41.957Z,4.18
2022-09-28T02:08:29.529Z,4.80
2022-09-28T02:11:18.208Z,3.63
2022-09-28T02:13:54.717Z,4.32
2022-09-28T02:16:34.514Z,5.13
2022-09-28T02:19:01.259Z,5.00
2022-09-28T02:21:38.951Z,6.70
2022-09-28T02:24:21.211Z,5.47
2022-09-28T02:26:49.912Z,5.50
2022-09-28T02:29:16.600Z,4.43
2022-09-28T02:31:43.199Z,5.72
2022-09-28T02:34:09.748Z,6.30
2022-09-28T02:36:36.080Z,6.10
2022-09-28T02:39:02.749Z,5.25
2022-09-28T02:41:35.071Z,6.07
2022-09-28T02:44:04.364Z,5.00
2022-09-28T02:46:49.497Z,5.53
2022-09-28T02:49:21.877Z,6.38
2022-09-28T02:52:07.759Z,5.38
2022-09-28T02:54:53.047Z,5.70
2022-09-28T02:57:19.650Z,5.72
2022-09-28T03:00:01.957Z,5.57
2022-09-28T03:02:34.625Z,7.47
2022-09-28T03:05:20.602Z,5.20
2022-09-28T03:07:46.833Z,6.35
2022-09-28T03:10:20.451Z,6.20
2022-09-28T03:12:48.201Z,7.75
2022-09-28T03:15:14.449Z,6.32
2022-09-28T03:17:40.922Z,7.43
2022-09-28T03:20:07.337Z,5.70
2022-09-28T03:22:33.608Z,7.25
2022-09-28T03:24:59.850Z,7.68
2022-09-28T03:27:26.151Z,6.85
2022-09-28T03:29:52.410Z,7.90
2022-09-28T03:32:18.654Z,6.03
2022-09-28T03:34:44.881Z,8.05
2022-09-28T03:37:11.140Z,6.53
2022-09-28T03:39:37.369Z,7.25
2022-09-28T03:42:03.701Z,6.63
2022-09-28T03:44:29.937Z,7.20
2022-09-28T03:46:56.489Z,6.78
2022-09-28T03:49:22.752Z,6.75
2022-09-28T03:51:50.077Z,5.57
2022-09-28T03:54:16.357Z,6.22
2022-09-28T03:56:42.597Z,6.05
2022-09-28T03:59:08.894Z,6.30
2022-09-28T04:01:35.173Z,7.03
2022-09-28T04:04:01.623Z,6.18
2022-09-28T04:06:28.024Z,6.32
2022-09-28T04:08:54.269Z,5.80
2022-09-28T04:11:20.802Z,6.05
2022-09-28T04:13:50.219Z,5.35
2022-09-28T04:16:17.913Z,5.83
2022-09-28T04:18:44.414Z,6.03
2022-09-28T04:21:12.011Z,5.80
2022-09-28T04:23:39.215Z,5.22
2022-09-28T04:26:06.907Z,4.75
2022-09-28T04:28:52.014Z,5.60
2022-09-28T04:31:19.655Z,4.78
2022-09-28T04:33:45.990Z,6.72
2022-09-28T04:36:12.229Z,5.05
2022-09-28T04:38:52.215Z,5.65
2022-09-28T04:41:19.753Z,4.18
2022-09-28T04:43:49.068Z,5.32
2022-09-28T04:46:15.407Z,5.50
2022-09-28T04:48:41.746Z,5.28
2022-09-28T04:51:08.058Z,5.70
2022-09-28T04:53:35.079Z,6.38
2022-09-28T04:56:02.995Z,5.63
2022-09-28T04:58:29.551Z,6.35
2022-09-28T05:01:00.394Z,7.53
2022-09-28T05:03:27.137Z,6.38
2022-09-28T05:05:53.387Z,7.82
2022-09-28T05:08:19.666Z,7.57
2022-09-28T05:10:46.132Z,6.95
2022-09-28T05:13:12.923Z,6.72
2022-09-28T05:15:40.096Z,7.60
2022-09-28T05:18:06.735Z,7.07
2022-09-28T05:20:33.165Z,6.28
2022-09-28T05:22:59.463Z,6.80
2022-09-28T05:25:25.714Z,7.35
2022-09-28T05:27:58.025Z,6.53
2022-09-28T05:30:24.482Z,6.88
2022-09-28T05:32:51.379Z,7.45
2022-09-28T05:35:17.640Z,6.65
2022-09-28T05:37:43.890Z,6.95
2022-09-28T05:40:10.500Z,6.72
2022-09-28T05:42:36.752Z,6.60
2022-09-28T05:45:03.559Z,7.35
2022-09-28T05:47:29.910Z,6.15
2022-09-28T05:49:56.166Z,7.00
2022-09-28T05:52:22.553Z,6.10
2022-09-28T05:54:48.835Z,5.70
2022-09-28T05:57:15.144Z,6.43
2022-09-28T05:59:41.419Z,7.35
2022-09-28T06:02:07.707Z,6.88
2022-09-28T06:04:33.978Z,7.07
2022-09-28T06:07:00.218Z,5.30
2022-09-28T06:09:26.522Z,4.18
2022-09-28T06:11:52.812Z,3.35
2022-09-28T06:14:19.083Z,3.40
2022-09-28T06:16:45.416Z,2.97
2022-09-28T06:19:11.894Z,3.40
2022-09-28T06:21:38.491Z,2.65
2022-09-28T06:24:05.017Z,2.88
2022-09-28T06:26:31.397Z,1.67
2022-09-28T06:28:57.647Z,1.80
2022-09-28T06:31:24.921Z,1.90
2022-09-28T06:33:51.718Z,2.92
2022-09-28T06:36:18.171Z,1.63
2022-09-28T06:38:45.216Z,1.95
2022-09-28T06:41:11.589Z,2.40
2022-09-28T06:43:39.644Z,2.75
2022-09-28T06:46:07.001Z,2.05
2022-09-28T06:48:34.063Z,2.70
2022-09-28T06:51:00.666Z,2.78
2022-09-28T06:53:28.433Z,4.35
2022-09-28T06:55:56.034Z,3.10
2022-09-28T06:58:22.598Z,4.45
2022-09-28T07:00:50.789Z,3.85
2022-09-28T07:03:18.561Z,3.67
2022-09-28T07:05:45.948Z,4.75
2022-09-28T07:08:12.700Z,3.78
2022-09-28T07:10:43.346Z,4.13
2022-09-28T07:13:26.611Z,3.45
2022-09-28T07:15:56.891Z,3.78
2022-09-28T07:18:23.586Z,3.63
2022-09-28T07:20:54.126Z,3.97
2022-09-28T07:23:20.865Z,5.03
2022-09-28T07:25:49.545Z,5.53
2022-09-28T07:28:17.170Z,4.03
2022-09-28T07:30:44.716Z,4.95
2022-09-28T07:33:12.590Z,5.15
2022-09-28T07:35:39.791Z,5.03
2022-09-28T07:38:06.646Z,5.88
2022-09-28T07:40:52.016Z,5.30
2022-09-28T07:43:21.866Z,4.45
2022-09-28T07:45:54.892Z,4.88
2022-09-28T07:48:21.733Z,4.35
2022-09-28T07:50:51.664Z,4.40
2022-09-28T07:53:22.321Z,5.18
2022-09-28T07:55:51.318Z,4.10
2022-09-28T07:58:17.638Z,4.93
2022-09-28T08:00:45.369Z,4.00
2022-09-28T08:03:11.673Z,4.68
2022-09-28T08:05:37.974Z,4.35
2022-09-28T08:08:04.231Z,4.32
2022-09-28T08:10:30.931Z,3.40
2022-09-28T08:13:02.096Z,3.70
2022-09-28T08:15:30.083Z,3.72
2022-09-28T08:18:00.511Z,3.90
2022-09-28T08:20:51.337Z,3.97
2022-09-28T08:23:18.343Z,5.43
2022-09-28T08:25:49.049Z,3.22
2022-09-28T08:28:18.770Z,2.78
2022-09-28T08:30:45.840Z,3.72
2022-09-28T08:33:16.129Z,3.40
2022-09-28T08:35:42.543Z,3.90
2022-09-28T08:38:08.963Z,4.40
2022-09-28T08:40:41.696Z,3.72
2022-09-28T08:43:18.956Z,4.15
2022-09-28T08:45:45.243Z,4.32
2022-09-28T08:48:33.014Z,4.20
2022-09-28T08:51:02.118Z,3.25
2022-09-28T08:53:42.662Z,3.45
2022-09-28T08:56:14.567Z,4.05
2022-09-28T08:58:42.689Z,2.78
2022-09-28T09:01:11.766Z,2.28
2022-09-28T09:03:41.838Z,2.58
2022-09-28T09:06:18.159Z,2.20
2022-09-28T09:09:03.834Z,1.85
2022-09-28T09:11:40.491Z,2.17
2022-09-28T09:14:16.144Z,2.72
2022-09-28T09:16:51.222Z,2.58
2022-09-28T09:19:27.207Z,2.53
2022-09-28T09:22:01.931Z,2.83
2022-09-28T09:24:37.841Z,3.17
2022-09-28T09:27:05.537Z,2.40
2022-09-28T09:29:37.233Z,2.35
2022-09-28T09:32:16.045Z,2.88
2022-09-28T09:34:42.486Z,2.65
2022-09-28T09:37:16.705Z,2.85
2022-09-28T09:39:55.711Z,2.53
2022-09-28T09:42:29.670Z,2.88
2022-09-28T09:45:05.036Z,2.28
2022-09-28T09:47:34.543Z,2.15
2022-09-28T09:50:06.878Z,5.03
2022-09-28T09:52:46.563Z,2.30
2022-09-28T09:55:30.046Z,2.30
2022-09-28T09:58:00.051Z,2.28
2022-09-28T10:00:26.299Z,3.17
2022-09-28T10:02:53.224Z,1.50
2022-09-28T10:05:22.253Z,2.42
2022-09-28T10:07:54.719Z,2.28
2022-09-28T10:10:37.850Z,1.77
2022-09-28T10:13:04.186Z,2.20
2022-09-28T10:15:31.733Z,2.28
2022-09-28T10:18:03.206Z,2.55
2022-09-28T10:20:31.893Z,2.15
2022-09-28T10:23:01.954Z,2.35
2022-09-28T10:25:29.807Z,2.65
2022-09-28T10:27:56.781Z,2.78
2022-09-28T10:30:23.996Z,2.90
2022-09-28T10:32:52.423Z,2.90
2022-09-28T10:35:18.672Z,2.65
2022-09-28T10:37:47.655Z,2.28
2022-09-28T10:40:28.139Z,1.58
2022-09-28T10:43:00.034Z,1.15
2022-09-28T10:45:26.590Z,1.25
2022-09-28T10:47:52.865Z,1.77
2022-09-28T10:50:28.359Z,0.93
2022-09-28T10:53:09.821Z,1.33
2022-09-28T10:55:36.962Z,1.38
2022-09-28T10:58:21.715Z,0.88
2022-09-28T11:00:49.083Z,0.85
2022-09-28T11:03:20.393Z,1.50
2022-09-28T11:05:57.653Z,0.60
2022-09-28T11:08:28.341Z,1.30
2022-09-28T11:11:02.635Z,0.60
2022-09-28T11:13:29.272Z,1.08
2022-09-28T11:15:56.873Z,1.55
2022-09-28T11:18:29.433Z,0.73
2022-09-28T11:21:12.208Z,1.27
2022-09-28T11:23:42.058Z,0.47
2022-09-28T11:26:09.047Z,0.73
2022-09-28T11:28:37.465Z,0.80
2022-09-28T11:31:07.122Z,0.80
2022-09-28T11:33:35.708Z,0.80
2022-09-28T11:36:08.175Z,1.63
2022-09-28T11:38:40.190Z,1.30
2022-09-28T11:41:14.233Z,1.63
2022-09-28T11:43:40.440Z,0.88
2022-09-28T11:46:20.020Z,0.88
2022-09-28T11:48:49.261Z,0.85
2022-09-28T11:51:18.230Z,1.17
2022-09-28T11:54:04.824Z,0.70
2022-09-28T11:56:37.695Z,1.00
2022-09-28T11:59:10.958Z,0.88
2022-09-28T12:01:48.922Z,1.23
2022-09-28T12:04:15.159Z,1.80
2022-09-28T12:06:45.958Z,1.63
2022-09-28T12:09:18.121Z,1.60
2022-09-28T12:11:46.657Z,1.60
2022-09-28T12:14:19.947Z,1.70
2022-09-28T12:17:09.581Z,2.25
2022-09-28T12:19:42.372Z,3.03
2022-09-28T12:22:32.319Z,3.35
2022-09-28T12:24:59.240Z,3.03
2022-09-28T12:27:38.535Z,2.95
2022-09-28T12:30:11.582Z,2.33
2022-09-28T12:32:49.323Z,2.20
2022-09-28T12:35:40.036Z,1.85
2022-09-28T12:38:25.205Z,1.85
2022-09-28T12:41:10.823Z,1.98
2022-09-28T12:43:44.337Z,1.63
2022-09-28T12:46:28.824Z,1.90
2022-09-28T12:49:51.580Z,2.17
2022-09-28T12:51:52.739Z,1.75
2022-09-28T12:54:19.077Z,1.83
2022-09-28T12:56:51.204Z,3.78
2022-09-28T12:59:30.813Z,1.85
2022-09-28T13:02:12.581Z,2.08
2022-09-28T13:04:57.436Z,1.92
2022-09-28T13:07:23.715Z,2.17
2022-09-28T13:10:06.823Z,2.20
2022-09-28T13:12:47.155Z,1.27
2022-09-28T13:15:16.238Z,1.15
2022-09-28T13:17:42.449Z,1.98
2022-09-28T13:20:47.525Z,1.65
2022-09-28T13:23:20.959Z,1.90
2022-09-28T13:25:53.124Z,1.90
2022-09-28T13:28:24.985Z,1.38
2022-09-28T13:30:53.828Z,2.17
2022-09-28T13:33:25.778Z,1.23
2022-09-28T13:35:52.030Z,1.55
2022-09-28T13:38:18.236Z,1.00
2022-09-28T13:41:03.247Z,1.50
2022-09-28T13:43:48.764Z,1.40
2022-09-28T13:46:41.304Z,0.82
2022-09-28T13:49:11.162Z,0.80
2022-09-28T13:51:44.834Z,0.45
2022-09-28T13:54:11.110Z,0.57
2022-09-28T13:56:44.151Z,0.20
2022-09-28T13:59:22.526Z,0.40
2022-09-28T14:02:06.798Z,0.50
2022-09-28T14:04:47.045Z,1.73
2022-09-28T14:07:20.684Z,0.63
2022-09-28T14:09:47.804Z,0.60
2022-09-28T14:12:26.007Z,0.55
2022-09-28T14:14:52.711Z,0.90
2022-09-28T14:17:18.978Z,1.55
2022-09-28T14:19:46.818Z,1.40
2022-09-28T14:22:26.061Z,2.13
2022-09-28T14:25:04.228Z,1.45
2022-09-28T14:27:49.424Z,1.60
2022-09-28T14:30:15.694Z,0.55
2022-09-28T14:32:45.078Z,0.30
2022-09-28T14:35:23.817Z,0.17
2022-09-28T14:38:10.265Z,0.30
2022-09-28T14:41:10.888Z,0.20
2022-09-28T14:43:57.521Z,0.10
2022-09-28T14:46:28.366Z,0.28
2022-09-28T14:49:05.277Z,0.00
2022-09-28T14:51:33.022Z,0.40
2022-09-28T14:54:08.833Z,0.20
2022-09-28T14:56:46.781Z,0.00
2022-09-28T14:59:16.975Z,0.30
2022-09-28T15:01:45.435Z,0.00
2022-09-28T15:04:12.735Z,0.08
2022-09-28T15:06:46.510Z,0.28
2022-09-28T15:09:28.841Z,0.00
2022-09-28T15:11:59.179Z,0.00
2022-09-28T15:14:27.815Z,0.20
2022-09-28T15:16:55.275Z,0.63
2022-09-28T15:19:26.263Z,0.40
2022-09-28T15:21:52.640Z,0.30
2022-09-28T15:24:27.840Z,0.32
2022-09-28T15:26:54.623Z,0.17
2022-09-28T15:29:22.670Z,0.20
2022-09-28T15:31:53.552Z,0.15
2022-09-28T15:34:45.917Z,0.22
2022-09-28T15:37:12.945Z,0.55
2022-09-28T15:39:39.261Z,0.38
2022-09-28T15:42:05.590Z,0.20
2022-09-28T15:44:37.115Z,0.10
2022-09-28T15:47:05.998Z,0.20
2022-09-28T15:49:39.038Z,0.20
2022-09-28T15:52:05.862Z,1.08
2022-09-28T15:54:38.778Z,0.40
2022-09-28T15:57:05.045Z,0.32
2022-09-28T15:59:36.730Z,0.52
2022-09-28T16:02:14.722Z,0.30
2022-09-28T16:04:56.124Z,0.60
2022-09-28T16:07:28.371Z,0.90
2022-09-28T16:09:54.934Z,1.02
2022-09-28T16:12:21.714Z,0.47
2022-09-28T16:14:49.607Z,0.90
2022-09-28T16:17:17.998Z,0.60
2022-09-28T16:19:48.558Z,1.35
2022-09-28T16:22:19.380Z,0.98
2022-09-28T16:24:53.495Z,1.05
2022-09-28T16:27:25.186Z,1.30
2022-09-28T16:30:10.011Z,1.83
2022-09-28T16:32:41.436Z,1.45
2022-09-28T16:35:13.582Z,1.13
2022-09-28T16:37:43.378Z,1.95
2022-09-28T16:40:09.923Z,1.50
2022-09-28T16:42:36.736Z,1.58
2022-09-28T16:45:05.171Z,1.77
2022-09-28T16:47:34.882Z,2.03
2022-09-28T16:50:02.435Z,1.85
2022-09-28T16:52:47.176Z,1.75
2022-09-28T16:55:38.788Z,1.40
2022-09-28T16:58:04.635Z,2.80
2022-09-28T17:00:30.957Z,3.10
2022-09-28T17:02:58.299Z,4.00
2022-09-28T17:05:25.449Z,2.63
2022-09-28T17:08:01.615Z,2.10
2022-09-28T17:10:55.782Z,1.88
2022-09-28T17:13:28.938Z,2.80
2022-09-28T17:15:55.221Z,8.43
2022-09-28T17:18:21.499Z,6.07
2022-09-28T17:20:49.384Z,3.50
2022-09-28T17:23:16.073Z,2.65
2022-09-28T17:25:42.596Z,7.13
2022-09-28T17:28:27.945Z,4.05
2022-09-28T17:30:54.260Z,3.05
2022-09-28T17:33:20.878Z,2.28
2022-09-28T17:35:48.073Z,2.45
2022-09-28T17:38:15.665Z,2.65
2022-09-28T17:40:43.127Z,4.32
2022-09-28T17:43:09.643Z,3.55
2022-09-28T17:45:39.366Z,3.45
2022-09-28T17:48:06.169Z,3.20
2022-09-28T17:50:34.079Z,3.25
2022-09-28T17:53:05.817Z,3.42
2022-09-28T17:55:33.286Z,3.58
2022-09-28T17:58:01.250Z,3.60
2022-09-28T18:00:28.008Z,4.10
2022-09-28T18:02:55.054Z,3.20
2022-09-28T18:05:21.562Z,3.45
2022-09-28T18:07:48.061Z,4.47
2022-09-28T18:10:15.354Z,3.38
2022-09-28T18:12:43.156Z,3.95
2022-09-28T18:15:10.284Z,4.00
2022-09-28T18:17:36.724Z,2.85
2022-09-28T18:20:03.806Z,2.95
2022-09-28T18:22:30.126Z,3.25
2022-09-28T18:24:56.400Z,3.00
2022-09-28T18:27:22.736Z,3.08
2022-09-28T18:29:49.032Z,3.63
2022-09-28T18:32:15.296Z,3.58
2022-09-28T18:34:41.629Z,3.92
2022-09-28T18:37:08.000Z,4.55
2022-09-28T18:39:35.035Z,4.32
2022-09-28T18:42:02.091Z,4.47
2022-09-28T18:44:28.595Z,4.55
2022-09-28T18:46:54.879Z,4.38
2022-09-28T18:49:21.770Z,3.65
2022-09-28T18:51:48.053Z,4.80
2022-09-28T18:54:14.594Z,3.80
2022-09-28T18:56:40.874Z,3.22
2022-09-28T18:59:11.953Z,4.75
2022-09-28T19:01:39.023Z,4.55
2022-09-28T19:04:06.674Z,5.72
2022-09-28T19:06:34.269Z,5.97
2022-09-28T19:09:01.044Z,6.03
2022-09-28T19:11:27.488Z,7.20
2022-09-28T19:13:54.676Z,7.13
2022-09-28T19:16:25.182Z,5.93
2022-09-28T19:18:53.456Z,6.93
2022-09-28T19:21:19.847Z,7.38
2022-09-28T19:23:49.355Z,7.32
2022-09-28T19:26:17.821Z,7.25
2022-09-28T19:28:44.087Z,7.90
2022-09-28T19:31:11.042Z,8.68
2022-09-28T19:33:38.049Z,7.88
2022-09-28T19:36:06.202Z,7.78
2022-09-28T19:38:33.038Z,7.32
2022-09-28T19:40:59.934Z,7.25
2022-09-28T19:43:26.860Z,6.93
2022-09-28T19:45:54.011Z,7.40
2022-09-28T19:48:26.214Z,7.65
2022-09-28T19:50:56.439Z,7.40
2022-09-28T19:53:26.861Z,7.70
2022-09-28T19:55:54.038Z,7.47
2022-09-28T19:58:21.052Z,7.32
2022-09-28T20:00:47.432Z,7.47
2022-09-28T20:03:13.709Z,6.47
2022-09-28T20:05:41.457Z,6.95
2022-09-28T20:08:08.319Z,8.55
2022-09-28T20:10:34.757Z,7.45
2022-09-28T20:13:01.035Z,8.20
2022-09-28T20:15:28.110Z,8.00
2022-09-28T20:17:58.884Z,7.20
2022-09-28T20:20:26.884Z,8.57
2022-09-28T20:22:53.863Z,7.75
2022-09-28T20:25:20.177Z,8.10
2022-09-28T20:27:46.461Z,8.73
2022-09-28T20:30:13.198Z,7.88
2022-09-28T20:32:39.477Z,8.32
2022-09-28T20:35:06.082Z,8.75
2022-09-28T20:37:33.473Z,10.13
2022-09-28T20:40:01.660Z,9.27
2022-09-28T20:42:27.948Z,8.88
2022-09-28T20:44:54.320Z,8.73
2022-09-28T20:47:20.596Z,8.55
2022-09-28T20:49:47.486Z,10.07
2022-09-28T20:52:13.786Z,9.15
2022-09-28T20:54:40.071Z,10.38
2022-09-28T20:57:17.329Z,9.88
2022-09-28T20:59:51.009Z,10.18
2022-09-28T21:02:20.102Z,9.60
2022-09-28T21:04:46.431Z,8.77
2022-09-28T21:07:12.727Z,10.15
2022-09-28T21:09:39.000Z,10.18
2022-09-28T21:12:05.376Z,9.70
2022-09-28T21:14:31.923Z,9.73
2022-09-28T21:16:58.194Z,9.15
2022-09-28T21:19:24.473Z,9.82
2022-09-28T21:21:51.158Z,9.77
2022-09-28T21:24:17.413Z,8.25
2022-09-28T21:26:43.691Z,8.27
2022-09-28T21:29:14.053Z,8.48
2022-09-28T21:34:07.035Z,7.95
2022-09-28T21:36:33.797Z,7.63
2022-09-28T21:39:00.062Z,8.40
2022-09-28T21:41:26.685Z,8.30
2022-09-28T21:43:53.026Z,8.43
2022-09-28T21:46:19.389Z,7.60
2022-09-28T21:48:45.760Z,8.45
2022-09-28T21:51:14.997Z,7.70
2022-09-28T21:53:41.330Z,8.85
2022-09-28T21:56:09.458Z,8.07
2022-09-28T21:58:36.304Z,7.90
2022-09-28T22:01:13.029Z,7.85
2022-09-28T22:03:39.382Z,7.75
2022-09-28T22:06:05.954Z,9.02
2022-09-28T22:08:32.801Z,8.63
2022-09-28T22:11:03.749Z,8.77
2022-09-28T22:13:30.946Z,8.45
2022-09-28T22:16:00.385Z,8.02
2022-09-28T22:18:27.339Z,7.23
2022-09-28T22:21:00.460Z,8.50
2022-09-28T22:23:27.636Z,8.25
2022-09-28T22:26:01.140Z,8.90
2022-09-28T22:28:27.660Z,8.77
2022-09-28T22:30:54.138Z,8.18
2022-09-28T22:33:20.485Z,8.00
2022-09-28T22:35:49.055Z,8.90
2022-09-28T22:38:15.596Z,8.60
2022-09-28T22:40:42.565Z,9.07
2022-09-28T22:43:08.857Z,9.30
2022-09-28T22:45:35.118Z,9.90
2022-09-28T22:48:01.512Z,10.90
2022-09-28T22:50:27.769Z,10.07
2022-09-28T22:52:56.165Z,9.40
2022-09-28T22:55:22.431Z,9.43
2022-09-28T22:57:48.706Z,11.02
2022-09-28T23:00:21.062Z,10.90
2022-09-28T23:02:47.464Z,11.85
2022-09-28T23:05:13.931Z,10.32
2022-09-28T23:07:40.217Z,11.15
2022-09-28T23:10:06.739Z,10.88
2022-09-28T23:12:35.603Z,11.52
2022-09-28T23:15:02.054Z,10.30
2022-09-28T23:17:28.354Z,10.50
2022-09-28T23:19:54.625Z,14.27
2022-09-28T23:22:20.910Z,12.10
2022-09-28T23:24:47.177Z,10.65
2022-09-28T23:27:13.457Z,10.52
2022-09-28T23:29:46.626Z,11.05
2022-09-28T23:32:13.365Z,12.00
2022-09-28T23:34:39.864Z,12.50
2022-09-28T23:37:06.149Z,12.90
2022-09-28T23:39:32.415Z,11.25
2022-09-28T23:41:58.949Z,11.95
2022-09-28T23:44:26.469Z,11.25
2022-09-28T23:46:52.796Z,10.52
2022-09-28T23:49:19.347Z,12.75
2022-09-28T23:51:45.960Z,11.00
2022-09-28T23:54:12.348Z,11.07
2022-09-28T23:56:38.661Z,12.07
2022-09-28T23:59:05.061Z,12.82
